CYMT

Chapais Airport

ICAO Code CYMT
IATA Code YMT
Name Chapais Airport
Location Chibougamau, Quebec, CA
Elevation 1270 Feet / 387.1 Meters
Latitude 49.77194444
Longitude -74.52805556
METAR CYMT 182200Z AUTO 01004KT 9SM FEW170 24/11 A2985 RMK SLP112 DENSITY ALT 2700FT
Extra information Display NOTAMS
Display Charts
Runway Length Width Surface Elevation
04 6495 ft 150 ft ASP 1262 ft
22 6495 ft 150 ft ASP 1270 ft